Time;durP1;ratioP1;P1;durP2;ratioP2;P2;SDS_P1;SDS_P2;PMS_P1;PMS_P2;Temp;Humidity;BMP_temperature;BMP_pressure;BME280_temperature;BME280_humidity;BME280_pressure;Samples;Min_cycle;Max_cycle;Signal;HPM_P1;HPM_P2
2024/02/23 00:00:53;;;;;;;0.10;0.10;;;;;;;2.31;100.00;97420.00;6215017;23;20586;-75
2024/02/23 00:03:59;;;;;;;0.10;0.10;;;;;;;2.16;100.00;97400.22;6242599;23;20006;-77
2024/02/23 00:07:35;;;;;;;0.00;0.00;;;;;;;2.23;100.00;97408.78;6239056;23;20057;-74
2024/02/23 00:10:05;;;;;;;0.10;0.10;;;;;;;2.02;100.00;97375.03;6238116;23;20023;-75
2024/02/23 00:12:30;;;;;;;0.00;0.00;;;;;;;1.86;100.00;97350.13;6192708;23;20008;-75
2024/02/23 00:14:57;;;;;;;0.00;0.00;;;;;;;2.01;100.00;97384.97;6213023;23;20075;-75
2024/02/23 00:17:23;;;;;;;0.00;0.00;;;;;;;2.04;100.00;97372.84;6217537;23;20030;-75
2024/02/23 00:19:49;;;;;;;0.10;0.10;;;;;;;2.21;100.00;97389.38;6190500;23;20000;-75
2024/02/23 00:22:16;;;;;;;0.10;0.10;;;;;;;2.14;100.00;97369.25;6214239;23;20004;-74
2024/02/23 00:28:43;;;;;;;0.10;0.10;;;;;;;2.26;100.00;97359.69;6226713;23;20038;-75
2024/02/23 00:31:25;;;;;;;0.10;0.10;;;;;;;2.40;100.00;97359.78;6186118;23;20012;-75
2024/02/23 00:34:32;;;;;;;;;;;;;;;;;;;;;
2024/02/23 00:40:04;;;;;;;0.10;0.10;;;;;;;2.25;100.00;97339.19;6222105;23;20043;-75
2024/02/23 00:42:30;;;;;;;0.10;0.10;;;;;;;2.14;100.00;97345.78;6210975;23;20089;-74
2024/02/23 00:44:58;;;;;;;0.00;0.00;;;;;;;2.11;100.00;97346.34;6218347;23;20004;-75
2024/02/23 00:47:24;;;;;;;0.00;0.00;;;;;;;2.05;100.00;97339.41;6214685;23;20007;-75
2024/02/23 00:49:49;;;;;;;0.00;0.00;;;;;;;2.13;100.00;97354.94;6243586;23;20023;-75
2024/02/23 00:52:15;;;;;;;0.00;0.00;;;;;;;2.23;100.00;97349.47;6182696;23;20103;-74
2024/02/23 00:54:41;;;;;;;0.10;0.10;;;;;;;2.22;100.00;97320.06;6184103;23;20005;-74
2024/02/23 00:57:06;;;;;;;0.10;0.10;;;;;;;2.29;100.00;97317.03;6138236;23;20014;-75
2024/02/23 00:59:37;;;;;;;0.00;0.00;;;;;;;2.32;100.00;97298.38;6181467;23;20370;-73
2024/02/23 01:02:06;;;;;;;0.00;0.00;;;;;;;2.64;100.00;97309.59;6187355;23;19984;-73
2024/02/23 01:04:42;;;;;;;0.10;0.10;;;;;;;2.85;100.00;97316.31;6185537;23;20501;-73
2024/02/23 01:07:08;;;;;;;0.00;0.00;;;;;;;2.95;100.00;97301.88;6165192;23;20004;-75
2024/02/23 01:09:33;;;;;;;0.00;0.00;;;;;;;3.13;100.00;97311.84;6162982;23;20010;-75
2024/02/23 01:12:14;;;;;;;;;;;;;;;;;;;;;
2024/02/23 01:14:39;;;;;;;0.10;0.10;;;;;;;3.12;100.00;97283.22;6191377;23;20083;-75
2024/02/23 01:17:07;;;;;;;0.10;0.10;;;;;;;3.32;100.00;97300.22;6210597;23;20004;-76
2024/02/23 01:19:33;;;;;;;0.00;0.00;;;;;;;3.35;100.00;97285.34;6186657;23;20000;-75
2024/02/23 01:22:01;;;;;;;0.00;0.00;;;;;;;3.49;100.00;97288.88;6187346;23;20008;-74
2024/02/23 01:24:28;;;;;;;0.10;0.10;;;;;;;3.45;100.00;97280.53;6214898;23;20050;-75
2024/02/23 01:29:48;;;;;;;0.10;0.10;;;;;;;3.49;100.00;97272.66;6204398;23;20000;-73
2024/02/23 01:32:13;;;;;;;0.10;0.10;;;;;;;3.53;100.00;97278.25;6181701;23;20379;-73
2024/02/23 01:35:06;;;;;;;0.10;0.10;;;;;;;3.65;100.00;97267.75;6159323;23;20070;-73
2024/02/23 01:38:00;;;;;;;0.00;0.00;;;;;;;3.60;100.00;97279.47;6155326;23;20008;-73
2024/02/23 01:40:26;;;;;;;0.10;0.10;;;;;;;3.57;100.00;97250.34;6169421;23;20332;-71
2024/02/23 01:43:04;;;;;;;0.00;0.00;;;;;;;3.78;100.00;97271.59;6183491;23;20013;-71
2024/02/23 01:45:31;;;;;;;0.10;0.10;;;;;;;3.73;100.00;97264.38;6208259;23;20020;-72
2024/02/23 01:47:57;;;;;;;0.00;0.00;;;;;;;3.80;100.00;97275.59;6186022;23;20031;-73
2024/02/23 01:50:51;;;;;;;0.10;0.10;;;;;;;3.89;100.00;97248.69;6186104;23;20023;-73
2024/02/23 01:53:20;;;;;;;0.00;0.00;;;;;;;3.99;100.00;97245.78;6222539;22;20020;-70
2024/02/23 01:55:47;;;;;;;0.10;0.10;;;;;;;4.01;100.00;97240.06;6213395;23;20973;-71
2024/02/23 01:58:15;;;;;;;0.00;0.00;;;;;;;3.91;100.00;97211.31;6242474;23;20051;-75
2024/02/23 02:00:41;;;;;;;0.10;0.10;;;;;;;4.29;100.00;97246.28;6217707;23;20043;-74
2024/02/23 02:03:16;;;;;;;0.10;0.10;;;;;;;4.39;100.00;97247.94;6239527;23;20000;-74
2024/02/23 02:05:44;;;;;;;0.00;0.00;;;;;;;4.32;100.00;97251.06;6243679;23;19992;-75
2024/02/23 02:08:11;;;;;;;0.10;0.10;;;;;;;4.31;100.00;97240.56;6190957;23;20366;-75
2024/02/23 02:10:47;;;;;;;0.08;0.08;;;;;;;4.50;100.00;97251.25;6218401;23;20012;-77
2024/02/23 02:13:12;;;;;;;0.00;0.00;;;;;;;4.55;100.00;97253.84;6241125;23;20015;-76
2024/02/23 02:15:43;;;;;;;0.00;0.00;;;;;;;4.50;100.00;97243.94;6196522;23;20104;-75
2024/02/23 02:18:18;;;;;;;;;;;;;;;;;;;;;
2024/02/23 02:20:59;;;;;;;0.00;0.00;;;;;;;4.59;100.00;97244.00;6247167;23;20048;-75
2024/02/23 02:23:28;;;;;;;0.10;0.10;;;;;;;4.48;100.00;97245.31;6218908;23;20024;-76
2024/02/23 02:25:59;;;;;;;0.10;0.10;;;;;;;4.55;100.00;97261.94;6243701;23;20010;-75
2024/02/23 02:28:26;;;;;;;0.10;0.10;;;;;;;4.59;100.00;97268.38;6217303;23;20020;-75
2024/02/23 02:30:52;;;;;;;0.10;0.10;;;;;;;4.59;100.00;97246.72;6192546;23;20019;-75
2024/02/23 02:33:18;;;;;;;0.00;0.00;;;;;;;4.49;100.00;97225.28;6216935;23;20008;-76
2024/02/23 02:35:44;;;;;;;0.10;0.10;;;;;;;4.36;100.00;97225.00;6242683;23;20415;-75
2024/02/23 02:38:26;;;;;;;0.10;0.10;;;;;;;4.24;100.00;97229.34;6219307;23;20050;-75
2024/02/23 02:40:56;;;;;;;0.00;0.00;;;;;;;4.19;100.00;97238.34;6217312;23;20083;-76
2024/02/23 02:43:22;;;;;;;0.00;0.00;;;;;;;4.08;100.00;97245.09;6219478;23;19988;-74
2024/02/23 02:45:47;;;;;;;0.00;0.00;;;;;;;3.92;100.00;97226.44;6191896;23;20011;-76
2024/02/23 02:48:15;;;;;;;0.10;0.10;;;;;;;3.90;100.00;97241.38;6219673;23;20083;-75
2024/02/23 02:50:50;;;;;;;0.10;0.10;;;;;;;3.95;100.00;97258.28;6243762;23;20010;-75
2024/02/23 02:53:15;;;;;;;;;;;;;;;4.11;100.00;97252.59;6195514;23;20390;-74
2024/02/23 02:55:46;;;;;;;0.05;0.05;;;;;;;3.91;100.00;97227.53;6216031;23;19911;-75
2024/02/23 02:58:14;;;;;;;0.00;0.00;;;;;;;3.86;100.00;97267.41;6245511;23;20062;-76
2024/02/23 03:00:50;;;;;;;0.10;0.10;;;;;;;3.50;100.00;97214.81;6245187;23;20004;-74
2024/02/23 03:03:26;;;;;;;0.10;0.10;;;;;;;3.65;100.00;97268.59;6243855;23;20015;-75
2024/02/23 03:05:57;;;;;;;0.10;0.10;;;;;;;3.56;100.00;97247.94;6193465;23;20028;-75
2024/02/23 03:08:23;;;;;;;0.10;0.10;;;;;;;3.48;100.00;97252.94;6215729;23;20024;-74
2024/02/23 03:10:54;;;;;;;0.00;0.00;;;;;;;3.37;100.00;97242.59;6215453;23;20012;-75
2024/02/23 03:13:21;;;;;;;0.10;0.10;;;;;;;3.30;100.00;97241.09;6218049;23;20079;-74
2024/02/23 03:15:47;;;;;;;0.10;0.10;;;;;;;3.36;100.00;97255.31;6217051;23;20373;-76
2024/02/23 03:18:32;;;;;;;;;;;;;;;;;;;;;
2024/02/23 03:21:43;;;;;;;0.10;0.10;;;;;;;3.14;100.00;97247.88;6217624;23;20087;-75
2024/02/23 03:24:21;;;;;;;;;;;;;;;;;;;;;
2024/02/23 03:26:46;;;;;;;0.00;0.00;;;;;;;3.24;100.00;97269.28;6233986;23;20075;-75
2024/02/23 03:29:29;;;;;;;0.00;0.00;;;;;;;3.08;100.00;97249.03;6219754;23;20000;-75
2024/02/23 03:32:42;;;;;;;0.00;0.00;;;;;;;3.23;100.00;97278.50;6194970;23;20004;-75
2024/02/23 03:35:11;;;;;;;0.10;0.10;;;;;;;3.22;100.00;97238.28;6219513;23;20008;-75
2024/02/23 03:37:37;;;;;;;0.00;0.00;;;;;;;3.55;100.00;97284.97;6219820;23;19999;-75
2024/02/23 03:40:06;;;;;;;0.10;0.10;;;;;;;3.44;100.00;97248.44;6218017;23;20072;-74
2024/02/23 03:42:31;;;;;;;0.00;0.00;;;;;;;3.75;100.00;97288.41;6217604;23;20000;-75
2024/02/23 03:44:59;;;;;;;0.05;0.05;;;;;;;3.72;100.00;97264.69;6217757;23;20019;-74
2024/02/23 03:47:25;;;;;;;0.10;0.10;;;;;;;3.80;100.00;97264.00;6244347;23;19999;-75
2024/02/23 03:50:00;;;;;;;0.00;0.00;;;;;;;3.76;100.00;97252.19;6216844;23;20415;-74
2024/02/23 03:52:25;;;;;;;0.10;0.10;;;;;;;3.74;100.00;97248.97;6168652;23;20431;-74
2024/02/23 03:54:51;;;;;;;0.10;0.10;;;;;;;3.69;100.00;97268.78;6218674;23;20010;-74
2024/02/23 03:57:28;;;;;;;0.00;0.00;;;;;;;3.58;100.00;97268.16;6194299;23;20008;-75
2024/02/23 03:59:55;;;;;;;0.00;0.00;;;;;;;3.72;100.00;97305.22;6166900;23;20096;-74
2024/02/23 04:02:26;;;;;;;0.00;0.00;;;;;;;3.73;100.00;97290.63;6193144;23;20018;-75
2024/02/23 04:04:51;;;;;;;0.00;0.00;;;;;;;3.85;100.00;97304.44;6190823;23;20007;-73
2024/02/23 04:07:26;;;;;;;0.10;0.10;;;;;;;3.83;100.00;97295.84;6167347;23;20008;-74
2024/02/23 04:09:54;;;;;;;0.10;0.10;;;;;;;3.65;100.00;97281.28;6216861;23;20108;-76
2024/02/23 04:12:21;;;;;;;0.10;0.10;;;;;;;3.67;100.00;97304.22;6215595;23;20024;-74
2024/02/23 04:15:01;;;;;;;0.00;0.00;;;;;;;3.38;100.00;97295.53;6244345;23;20031;-75
2024/02/23 04:17:27;;;;;;;0.10;0.10;;;;;;;3.29;100.00;97315.09;6214706;23;20000;-74
2024/02/23 04:19:52;;;;;;;0.10;0.10;;;;;;;3.10;100.00;97300.84;6217350;23;20042;-74
2024/02/23 04:22:28;;;;;;;0.00;0.00;;;;;;;3.23;100.00;97329.78;6217613;23;20008;-76
2024/02/23 04:24:53;;;;;;;0.10;0.10;;;;;;;3.10;100.00;97295.44;6220105;23;20346;-75
2024/02/23 04:27:24;;;;;;;0.00;0.00;;;;;;;3.20;100.00;97322.28;6216382;23;20008;-73
2024/02/23 04:29:49;;;;;;;0.10;0.10;;;;;;;3.26;100.00;97315.69;6219923;23;20011;-75
2024/02/23 04:32:15;;;;;;;0.10;0.10;;;;;;;3.42;100.00;97310.84;6241030;23;20011;-75
2024/02/23 04:34:42;;;;;;;0.00;0.00;;;;;;;3.52;100.00;97318.00;6194675;23;20371;-75
2024/02/23 04:37:08;;;;;;;0.10;0.10;;;;;;;3.66;100.00;97318.84;6192866;23;20327;-75
2024/02/23 04:39:33;;;;;;;0.10;0.10;;;;;;;3.63;100.00;97334.84;6213904;23;20016;-75
2024/02/23 04:41:59;;;;;;;0.10;0.10;;;;;;;3.64;100.00;97337.25;6164745;23;19999;-75
2024/02/23 04:44:24;;;;;;;0.00;0.00;;;;;;;3.56;100.00;97335.19;6192912;23;20004;-76
2024/02/23 04:46:52;;;;;;;0.10;0.10;;;;;;;3.56;100.00;97320.91;6192055;23;20439;-75
2024/02/23 04:49:17;;;;;;;0.00;0.00;;;;;;;3.64;100.00;97331.84;6214344;23;20000;-76
2024/02/23 04:51:45;;;;;;;0.00;0.00;;;;;;;3.69;100.00;97328.25;6168740;22;20015;-77
2024/02/23 04:54:10;;;;;;;0.10;0.10;;;;;;;3.81;100.00;97333.16;6166603;23;20019;-74
2024/02/23 04:56:36;;;;;;;0.10;0.10;;;;;;;3.91;100.00;97335.69;6192399;23;20012;-75
2024/02/23 04:59:24;;;;;;;0.00;0.00;;;;;;;4.05;100.00;97340.34;6191865;23;20019;-74
2024/02/23 05:01:52;;;;;;;0.00;0.00;;;;;;;3.89;100.00;97321.69;6216421;23;20008;-75
2024/02/23 05:04:20;;;;;;;0.10;0.10;;;;;;;3.80;100.00;97326.19;6188738;23;20039;-74
2024/02/23 05:06:46;;;;;;;0.03;0.03;;;;;;;3.78;100.00;97320.25;6190059;23;20101;-76
2024/02/23 05:09:16;;;;;;;0.00;0.00;;;;;;;3.72;100.00;97326.84;6218541;23;20443;-76
2024/02/23 05:11:42;;;;;;;0.10;0.10;;;;;;;3.70;100.00;97340.66;6244586;23;20053;-74
2024/02/23 05:14:08;;;;;;;0.00;0.00;;;;;;;3.62;100.00;97339.44;6244856;23;20004;-74
2024/02/23 05:16:33;;;;;;;0.10;0.10;;;;;;;3.62;100.00;97338.63;6167203;23;20095;-75
2024/02/23 05:18:59;;;;;;;0.00;0.00;;;;;;;3.61;100.00;97343.25;6191085;23;20120;-74
2024/02/23 05:21:25;;;;;;;0.10;0.10;;;;;;;3.51;100.00;97329.09;6166923;23;20125;-73
2024/02/23 05:23:53;;;;;;;0.10;0.10;;;;;;;3.45;100.00;97318.38;6188825;23;20012;-74
2024/02/23 05:26:18;;;;;;;0.10;0.10;;;;;;;3.72;100.00;97343.06;6214248;23;20000;-74
2024/02/23 05:28:44;;;;;;;0.00;0.00;;;;;;;3.75;100.00;97347.88;6239870;23;20095;-75
2024/02/23 05:31:10;;;;;;;0.00;0.00;;;;;;;3.69;100.00;97332.84;6163899;23;20075;-73
2024/02/23 05:33:37;;;;;;;0.10;0.10;;;;;;;3.58;100.00;97321.41;6192461;23;20445;-75
2024/02/23 05:36:13;;;;;;;0.00;0.00;;;;;;;3.60;100.00;97327.31;6215763;23;20504;-74
2024/02/23 05:38:46;;;;;;;0.10;0.10;;;;;;;3.63;100.00;97335.63;6215815;23;20007;-73
2024/02/23 05:41:31;;;;;;;;;;;;;;;;;;;;;
2024/02/23 05:44:10;;;;;;;;;;;;;;;;;;;;;
2024/02/23 05:46:39;;;;;;;0.00;0.00;;;;;;;3.41;100.00;97316.56;6215310;23;20080;-75
2024/02/23 05:49:04;;;;;;;0.10;0.10;;;;;;;3.31;100.00;97312.13;6215711;23;20012;-74
2024/02/23 05:51:39;;;;;;;0.00;0.00;;;;;;;3.32;100.00;97319.13;6245608;23;20006;-74
2024/02/23 05:54:05;;;;;;;0.10;0.10;;;;;;;3.27;100.00;97330.81;6185953;23;20016;-75
2024/02/23 05:56:30;;;;;;;0.00;0.00;;;;;;;3.15;100.00;97316.94;6186522;23;20020;-74
2024/02/23 05:58:56;;;;;;;0.10;0.10;;;;;;;3.00;100.00;97311.78;6188683;23;20051;-75
2024/02/23 06:01:24;;;;;;;0.10;0.10;;;;;;;3.16;100.00;97348.25;6159408;23;20446;-75
2024/02/23 06:03:54;;;;;;;0.10;0.10;;;;;;;3.04;100.00;97346.00;6186722;23;20032;-74
2024/02/23 06:06:25;;;;;;;0.10;0.10;;;;;;;2.96;100.00;97344.78;6160346;23;20000;-75
2024/02/23 06:08:50;;;;;;;0.10;0.10;;;;;;;3.05;100.00;97360.31;6188451;23;20428;-74
2024/02/23 06:11:16;;;;;;;0.10;0.10;;;;;;;2.95;100.00;97353.97;6189173;23;20092;-73
2024/02/23 06:13:42;;;;;;;0.10;0.10;;;;;;;2.86;100.00;97344.91;6209336;23;20008;-74
2024/02/23 06:16:11;;;;;;;0.10;0.10;;;;;;;2.77;100.00;97338.53;6213539;23;19989;-74
2024/02/23 06:18:40;;;;;;;0.05;0.05;;;;;;;2.88;100.00;97369.72;6182509;23;20012;-74
2024/02/23 06:21:59;;;;;;;0.10;0.10;;;;;;;2.79;100.00;97376.84;6189272;23;20004;-75
2024/02/23 06:24:25;;;;;;;0.00;0.00;;;;;;;2.55;100.00;97353.38;6202497;23;20001;-74
2024/02/23 06:27:05;;;;;;;0.10;0.10;;;;;;;2.49;100.00;97351.84;6186303;23;20009;-73
2024/02/23 06:29:36;;;;;;;0.00;0.00;;;;;;;2.56;100.00;97363.09;6163860;23;20005;-74
2024/02/23 06:32:16;;;;;;;0.08;0.08;;;;;;;2.51;100.00;97344.28;6185255;23;20054;-74
2024/02/23 06:34:44;;;;;;;0.00;0.00;;;;;;;2.60;100.00;97361.44;6187475;23;20004;-73
2024/02/23 06:37:10;;;;;;;0.10;0.10;;;;;;;2.69;100.00;97371.59;6187824;23;20951;-74
2024/02/23 06:39:54;;;;;;;;;;;;;;;;;;;;;
2024/02/23 06:42:28;;;;;;;0.10;0.10;;;;;;;2.66;100.00;97372.16;6189441;23;20088;-74
2024/02/23 06:44:54;;;;;;;;;;;;;;;2.59;100.00;97367.91;6139760;23;20005;-74
2024/02/23 06:50:21;;;;;;;0.00;0.00;;;;;;;2.32;100.00;97313.75;6179837;23;20029;-73
2024/02/23 06:53:06;;;;;;;0.10;0.10;;;;;;;2.55;100.00;97350.69;6155823;23;20021;-74
2024/02/23 06:55:37;;;;;;;0.10;0.10;;;;;;;2.58;100.00;97355.50;6156769;23;20320;-73
2024/02/23 06:58:04;;;;;;;0.10;0.10;;;;;;;2.65;100.00;97371.34;6181651;23;20012;-76
2024/02/23 07:00:32;;;;;;;0.00;0.00;;;;;;;2.61;100.00;97364.91;6160612;23;20005;-76
2024/02/23 07:03:05;;;;;;;0.10;0.10;;;;;;;2.63;100.00;97365.44;6163885;23;20493;-75
2024/02/23 07:05:30;;;;;;;0.10;0.10;;;;;;;2.62;100.00;97375.41;6190712;23;20000;-76
2024/02/23 07:07:57;;;;;;;0.10;0.10;;;;;;;2.59;100.00;97378.69;6166801;23;20004;-75
2024/02/23 07:10:24;;;;;;;0.10;0.10;;;;;;;2.41;100.00;97361.38;6193813;23;20013;-76
2024/02/23 07:12:53;;;;;;;0.00;0.00;;;;;;;2.46;100.00;97379.41;6168133;23;20412;-77
2024/02/23 07:15:21;;;;;;;0.10;0.10;;;;;;;2.40;100.00;97381.34;6166305;23;20092;-76
2024/02/23 07:17:47;;;;;;;0.10;0.10;;;;;;;2.35;100.00;97375.22;6191149;23;20015;-76
2024/02/23 07:20:13;;;;;;;0.10;0.10;;;;;;;2.44;100.00;97381.59;6165936;23;20099;-77
2024/02/23 07:22:38;;;;;;;0.00;0.00;;;;;;;2.26;100.00;97346.19;6193798;23;20008;-75
2024/02/23 07:25:07;;;;;;;0.10;0.10;;;;;;;2.48;100.00;97377.22;6165155;23;20030;-77
2024/02/23 07:27:35;;;;;;;0.10;0.10;;;;;;;2.56;100.00;97384.69;6190834;23;20027;-76
2024/02/23 07:30:02;;;;;;;0.10;0.10;;;;;;;2.57;100.00;97386.28;6166722;23;20012;-77
2024/02/23 07:32:29;;;;;;;0.10;0.10;;;;;;;2.67;100.00;97389.94;6188062;23;20007;-78
2024/02/23 07:34:55;;;;;;;0.00;0.00;;;;;;;2.70;100.00;97386.66;6189906;23;20032;-77
2024/02/23 07:37:20;;;;;;;0.10;0.10;;;;;;;2.84;100.00;97384.88;6163354;23;20014;-77
2024/02/23 07:39:46;;;;;;;0.10;0.10;;;;;;;2.87;100.00;97383.50;6188588;23;20113;-77
2024/02/23 07:42:14;;;;;;;0.10;0.10;;;;;;;2.94;100.00;97384.72;6164093;23;20722;-77
2024/02/23 07:44:40;;;;;;;0.10;0.10;;;;;;;2.86;100.00;97377.31;6162829;23;20011;-77
2024/02/23 07:47:06;;;;;;;0.10;0.10;;;;;;;2.87;100.00;97373.50;6188169;23;20000;-78
2024/02/23 07:49:34;;;;;;;0.10;0.10;;;;;;;2.96;100.00;97390.66;6165049;23;20024;-77
2024/02/23 07:51:59;;;;;;;0.10;0.10;;;;;;;2.87;100.00;97362.69;6169043;22;20060;-74
2024/02/23 07:54:24;;;;;;;0.00;0.00;;;;;;;3.53;100.00;97395.25;6194067;23;20043;-76
2024/02/23 07:56:50;;;;;;;0.10;0.10;;;;;;;4.66;100.00;97401.38;6180578;23;20004;-77
2024/02/23 07:59:15;;;;;;;0.10;0.10;;;;;;;5.00;100.00;97408.25;6200632;23;20004;-75
2024/02/23 08:01:41;;;;;;;0.10;0.10;;;;;;;4.81;100.00;97405.69;6194120;23;20015;-77
2024/02/23 08:04:06;;;;;;;0.10;0.10;;;;;;;4.37;100.00;97418.69;6197120;23;20012;-77
2024/02/23 08:06:32;;;;;;;0.10;0.10;;;;;;;3.88;100.00;97401.16;6218167;23;20012;-77
2024/02/23 08:08:58;;;;;;;0.10;0.10;;;;;;;3.65;100.00;97403.72;6219873;23;20011;-77
2024/02/23 08:11:23;;;;;;;0.10;0.10;;;;;;;3.62;100.00;97412.41;6193962;23;20008;-77
2024/02/23 08:13:49;;;;;;;0.00;0.00;;;;;;;3.97;100.00;97421.03;6193982;23;20052;-78
2024/02/23 08:16:17;;;;;;;0.10;0.10;;;;;;;4.06;100.00;97418.47;6220182;23;20008;-77
2024/02/23 08:18:45;;;;;;;0.10;0.10;;;;;;;4.18;100.00;97415.28;6244197;23;20362;-78
2024/02/23 08:21:11;;;;;;;0.10;0.10;;;;;;;4.71;100.00;97428.34;6221018;23;20367;-75
2024/02/23 08:23:37;;;;;;;0.10;0.10;;;;;;;5.15;100.00;97434.22;6246196;23;20020;-76
2024/02/23 08:26:03;;;;;;;0.10;0.10;;;;;;;5.28;100.00;97438.00;6196451;23;20010;-78
2024/02/23 08:28:28;;;;;;;0.10;0.10;;;;;;;5.49;100.00;97445.69;6220290;23;20327;-77
2024/02/23 08:30:54;;;;;;;0.00;0.00;;;;;;;7.06;100.00;97446.63;6196348;23;20696;-77
2024/02/23 08:33:20;;;;;;;0.10;0.10;;;;;;;8.62;100.00;97454.31;6219786;23;20003;-77
2024/02/23 08:35:48;;;;;;;0.10;0.10;;;;;;;8.27;100.00;97448.94;6191284;23;20042;-78
2024/02/23 08:38:14;;;;;;;0.10;0.10;;;;;;;8.35;100.00;97456.25;6220645;23;19992;-78
2024/02/23 08:40:39;;;;;;;0.10;0.10;;;;;;;9.81;100.00;97448.81;6219443;22;20083;-78
2024/02/23 08:43:05;;;;;;;0.00;0.00;;;;;;;9.93;98.31;97443.41;6194548;23;20015;-78
2024/02/23 08:45:30;;;;;;;0.10;0.10;;;;;;;11.02;87.50;97444.38;6220360;23;20321;-77
2024/02/23 08:47:56;;;;;;;0.00;0.00;;;;;;;12.03;83.17;97449.00;6215058;23;20008;-77
2024/02/23 08:50:22;;;;;;;0.10;0.10;;;;;;;12.66;77.10;97433.84;6196325;23;20008;-77
2024/02/23 08:52:47;;;;;;;0.10;0.10;;;;;;;13.62;73.49;97450.22;6219379;23;20040;-77
2024/02/23 08:55:12;;;;;;;0.10;0.10;;;;;;;14.81;66.97;97449.81;6169461;23;20020;-77
2024/02/23 08:57:42;;;;;;;0.10;0.10;;;;;;;15.66;60.48;97459.78;6219803;23;20008;-77
2024/02/23 09:00:08;;;;;;;0.00;0.00;;;;;;;16.39;57.45;97457.56;6221751;22;20004;-77
2024/02/23 09:02:35;;;;;;;0.00;0.00;;;;;;;16.67;56.30;97423.16;6196351;23;19992;-79
2024/02/23 09:05:01;;;;;;;0.10;0.10;;;;;;;17.30;54.35;97450.16;6219779;23;20343;-76
2024/02/23 09:07:26;;;;;;;0.10;0.10;;;;;;;17.58;53.75;97464.16;6170103;23;20012;-77
2024/02/23 09:09:52;;;;;;;0.00;0.00;;;;;;;17.72;50.56;97457.91;6216858;23;20008;-78
2024/02/23 09:12:18;;;;;;;0.00;0.00;;;;;;;15.45;54.44;97455.56;6195179;23;20019;-78
2024/02/23 09:14:44;;;;;;;0.00;0.00;;;;;;;13.18;63.11;97450.38;6170199;23;20083;-77
2024/02/23 09:17:11;;;;;;;0.03;0.03;;;;;;;12.89;68.85;97460.66;6220568;23;20035;-78
2024/02/23 09:19:36;;;;;;;0.10;0.10;;;;;;;14.68;67.30;97449.19;6245029;23;20078;-78
2024/02/23 09:22:03;;;;;;;0.10;0.10;;;;;;;15.77;58.03;97466.25;6195095;23;20012;-78
2024/02/23 09:24:30;;;;;;;0.00;0.00;;;;;;;16.67;54.89;97461.78;6223482;23;20037;-78
2024/02/23 09:26:56;;;;;;;0.10;0.10;;;;;;;17.60;54.23;97445.22;6197763;23;20058;-78
2024/02/23 09:29:21;;;;;;;0.00;0.00;;;;;;;19.06;50.97;97456.41;6223567;23;20027;-78
2024/02/23 09:31:47;;;;;;;0.00;0.00;;;;;;;19.87;48.55;97461.47;6196597;23;20091;-78
2024/02/23 09:34:13;;;;;;;0.00;0.00;;;;;;;18.46;48.29;97460.66;6174104;23;20015;-79
2024/02/23 09:36:38;;;;;;;0.00;0.00;;;;;;;17.37;50.01;97436.38;6223277;23;20327;-77
2024/02/23 09:39:06;;;;;;;0.00;0.00;;;;;;;16.80;48.99;97459.56;6197140;23;20050;-78
2024/02/23 09:41:34;;;;;;;0.00;0.00;;;;;;;15.24;53.43;97466.22;6198084;23;20008;-77
2024/02/23 09:44:01;;;;;;;0.00;0.00;;;;;;;13.46;55.60;97438.50;6198879;23;19988;-78
2024/02/23 09:46:29;;;;;;;0.00;0.00;;;;;;;12.28;60.33;97448.91;6223646;23;20075;-77
2024/02/23 09:48:56;;;;;;;0.00;0.00;;;;;;;12.39;63.83;97471.91;6248765;23;20020;-78
2024/02/23 09:51:26;;;;;;;0.00;0.00;;;;;;;12.49;61.65;97464.34;6198636;23;20015;-76
2024/02/23 09:53:52;;;;;;;0.10;0.10;;;;;;;11.97;64.83;97466.84;6198407;23;20020;-78
2024/02/23 09:56:19;;;;;;;0.00;0.00;;;;;;;11.50;68.69;97459.16;6222809;23;20024;-77
2024/02/23 09:58:59;;;;;;;0.00;0.00;;;;;;;11.86;66.87;97455.53;6175927;23;20148;-76
2024/02/23 10:01:29;;;;;;;0.00;0.00;;;;;;;12.28;63.51;97451.66;6223657;23;20085;-78
2024/02/23 10:03:57;;;;;;;0.00;0.00;;;;;;;12.58;63.72;97456.72;6250677;23;20386;-76
2024/02/23 10:06:23;;;;;;;0.00;0.00;;;;;;;12.68;61.32;97458.94;6249758;23;20019;-78
2024/02/23 10:08:49;;;;;;;0.00;0.00;;;;;;;11.91;62.62;97468.19;6225546;23;20004;-77
2024/02/23 10:11:18;;;;;;;0.00;0.00;;;;;;;11.58;65.55;97471.91;6207158;23;20008;-77
2024/02/23 10:13:47;;;;;;;0.00;0.00;;;;;;;12.31;69.38;97461.91;6260891;23;20423;-77
2024/02/23 10:16:12;;;;;;;0.00;0.00;;;;;;;14.94;61.90;97481.50;6211224;23;20008;-76
2024/02/23 10:18:38;;;;;;;0.00;0.00;;;;;;;17.67;53.95;97472.09;6212225;23;20008;-76
2024/02/23 10:21:05;;;;;;;0.00;0.00;;;;;;;19.76;48.63;97483.66;6204573;23;20091;-76
2024/02/23 10:23:31;;;;;;;0.10;0.10;;;;;;;19.96;45.76;97486.81;6224315;23;20012;-77
2024/02/23 10:25:56;;;;;;;0.00;0.00;;;;;;;20.03;47.08;97489.59;6222888;23;20004;-78
2024/02/23 10:28:22;;;;;;;0.00;0.00;;;;;;;18.90;48.33;97470.63;6175312;23;20008;-76
2024/02/23 10:30:48;;;;;;;0.00;0.00;;;;;;;17.94;45.61;97488.47;6252170;23;20004;-76
2024/02/23 10:33:14;;;;;;;0.00;0.00;;;;;;;15.59;51.00;97473.44;6223618;23;20008;-74
2024/02/23 10:35:45;;;;;;;0.00;0.00;;;;;;;14.30;55.57;97472.81;6172184;23;20011;-76
2024/02/23 10:38:19;;;;;;;0.00;0.00;;;;;;;13.81;59.60;97482.41;6220224;23;20012;-75
2024/02/23 10:40:47;;;;;;;0.00;0.00;;;;;;;12.97;60.08;97484.38;6224082;23;20063;-76
2024/02/23 10:43:19;;;;;;;0.00;0.00;;;;;;;11.99;62.68;97486.44;6220930;23;20713;-75
2024/02/23 10:45:46;;;;;;;0.00;0.00;;;;;;;11.84;64.67;97511.78;6248853;23;20007;-76
2024/02/23 10:48:12;;;;;;;0.00;0.00;;;;;;;12.41;66.17;97507.16;6196315;23;20008;-75
2024/02/23 10:50:39;;;;;;;0.00;0.00;;;;;;;14.01;62.96;97499.72;6223267;23;20012;-75
2024/02/23 10:53:08;;;;;;;0.00;0.00;;;;;;;14.96;60.10;97489.38;6218813;23;20024;-75
2024/02/23 10:55:53;;;;;;;;;;;;;;;;;;;;;
2024/02/23 10:58:22;;;;;;;0.00;0.00;;;;;;;20.37;44.75;97491.81;6242296;23;20507;-76
2024/02/23 11:00:57;;;;;;;;;;;;;;;;;;;;;
2024/02/23 11:03:30;;;;;;;0.00;0.00;;;;;;;20.58;41.22;97504.03;6233159;23;20082;-75
2024/02/23 11:05:55;;;;;;;0.00;0.00;;;;;;;17.63;45.49;97493.41;6218302;23;20407;-74
2024/02/23 11:08:21;;;;;;;0.00;0.00;;;;;;;15.64;50.63;97495.97;6192855;23;20004;-74
2024/02/23 11:10:51;;;;;;;0.00;0.00;;;;;;;19.35;47.25;97509.06;6219425;23;20434;-76
2024/02/23 11:13:17;;;;;;;0.00;0.00;;;;;;;23.87;40.18;97513.91;6223874;23;20008;-77
2024/02/23 11:15:43;;;;;;;0.00;0.00;;;;;;;26.51;35.07;97505.81;6219969;23;20433;-77
2024/02/23 11:18:27;;;;;;;0.00;0.00;;;;;;;28.32;33.03;97495.22;6194618;23;20008;-76
2024/02/23 11:21:00;;;;;;;0.00;0.00;;;;;;;26.64;31.94;97494.66;6222836;23;20023;-75
2024/02/23 11:23:26;;;;;;;0.00;0.00;;;;;;;26.44;32.19;97506.81;6219590;23;20019;-76
2024/02/23 11:26:05;;;;;;;0.00;0.00;;;;;;;26.10;30.84;97515.78;6221104;23;20435;-74
2024/02/23 11:28:31;;;;;;;0.00;0.00;;;;;;;26.06;30.64;97501.09;6218322;23;20011;-76
2024/02/23 11:30:57;;;;;;;0.00;0.00;;;;;;;26.56;32.77;97494.09;6220077;23;20008;-76
2024/02/23 11:33:27;;;;;;;0.00;0.00;;;;;;;23.73;33.30;97483.47;6193702;23;20023;-76
2024/02/23 11:35:52;;;;;;;0.00;0.00;;;;;;;22.14;38.99;97493.28;6195733;23;20008;-77
2024/02/23 11:38:21;;;;;;;0.00;0.00;;;;;;;22.43;39.64;97492.97;6246009;23;20308;-75
2024/02/23 11:40:52;;;;;;;0.00;0.00;;;;;;;23.34;37.73;97482.13;6220443;23;20012;-77
2024/02/23 11:43:18;;;;;;;0.00;0.00;;;;;;;22.18;40.63;97482.09;6196570;23;20031;-76
2024/02/23 11:45:47;;;;;;;0.00;0.00;;;;;;;23.03;36.61;97473.84;6194241;23;20012;-76
2024/02/23 11:48:12;;;;;;;0.00;0.00;;;;;;;20.91;38.49;97477.69;6219972;23;20004;-77
2024/02/23 11:50:37;;;;;;;0.00;0.00;;;;;;;20.98;39.93;97496.25;6193496;23;20074;-76
2024/02/23 11:53:04;;;;;;;0.00;0.00;;;;;;;22.04;36.75;97478.28;6194056;23;20034;-76
2024/02/23 11:55:30;;;;;;;0.00;0.00;;;;;;;23.26;35.13;97497.38;6213251;23;20645;-80
2024/02/23 11:57:55;;;;;;;0.00;0.00;;;;;;;22.09;33.93;97471.47;6164990;23;20008;-78
2024/02/23 12:00:20;;;;;;;0.00;0.00;;;;;;;18.94;39.93;97479.75;6214038;23;20424;-78
2024/02/23 12:02:48;;;;;;;0.00;0.00;;;;;;;16.22;42.80;97475.50;6215006;23;20015;-75
2024/02/23 12:05:14;;;;;;;0.00;0.00;;;;;;;14.65;47.57;97467.22;6245896;23;20110;-77
2024/02/23 12:07:40;;;;;;;0.00;0.00;;;;;;;14.18;50.37;97451.78;6246130;23;20427;-77
2024/02/23 12:10:06;;;;;;;0.00;0.00;;;;;;;14.60;51.36;97461.19;6191643;23;20427;-77